Aviation Digital Data Service (ADDS)

Output produced by METARs form (1304 UTC 19 January 2019)
found at http://www.aviationweather.gov/metar/data/
 
METAR text: LPBJ 191240Z 24008KT 7000 BCFG BKN002 OVC007 12/12 Q1018
Conditions at: LPBJ (BEJA (POR/GER-AF, PT) observed 1240 UTC 19 January 2019
Temperature: 12.0°C (54°F)
Dewpoint: 12.0°C (54°F) [RH = 100%]
Pressure (altimeter): 30.06 inches Hg (1018.0 mb)
Winds: from the WSW (240 degrees) at 9 MPH (8 knots; 4.1 m/s)
Visibility: 4 miles ( 7 km)
Ceiling: 200 feet AGL
Clouds: broken clouds at 200 feet AGL
overcast cloud deck at 700 feet AGL
Weather: BCFG  (patches of fog)

METAR text: LPBJ 191224Z 24007KT 4000 BCFG OVC002 12/12 Q1018
Conditions at: LPBJ (BEJA (POR/GER-AF, PT) observed 1224 UTC 19 January 2019
Temperature: 12.0°C (54°F)
Dewpoint: 12.0°C (54°F) [RH = 100%]
Pressure (altimeter): 30.06 inches Hg (1018.0 mb)
Winds: from the WSW (240 degrees) at 8 MPH (7 knots; 3.6 m/s)
Visibility: 2.49 miles (4.01 km)
Ceiling: 200 feet AGL
Clouds: overcast cloud deck at 200 feet AGL
Weather: BCFG  (patches of fog)

METAR text: LPBJ 191200Z 22007KT 0700 -DZ FG OVC002 11/11 Q1019
Conditions at: LPBJ (BEJA (POR/GER-AF, PT) observed 1200 UTC 19 January 2019
Temperature: 11.0°C (52°F)
Dewpoint: 11.0°C (52°F) [RH = 100%]
Pressure (altimeter): 30.09 inches Hg (1019.0 mb)
Winds: from the SW (220 degrees) at 8 MPH (7 knots; 3.6 m/s)
Visibility: 0.43 miles (0.69 km)
Ceiling: 200 feet AGL
Clouds: overcast cloud deck at 200 feet AGL
Weather: -DZ FG  (light drizzle, fog)

METAR text: LPBJ 191149Z 22007KT 0700 -DZ FG OVC004 11/11 Q1019
Conditions at: LPBJ (BEJA (POR/GER-AF, PT) observed 1149 UTC 19 January 2019
Temperature: 11.0°C (52°F)
Dewpoint: 11.0°C (52°F) [RH = 100%]
Pressure (altimeter): 30.09 inches Hg (1019.0 mb)
Winds: from the SW (220 degrees) at 8 MPH (7 knots; 3.6 m/s)
Visibility: 0.43 miles (0.69 km)
Ceiling: 400 feet AGL
Clouds: overcast cloud deck at 400 feet AGL
Weather: -DZ FG  (light drizzle, fog)

METAR text: LPBJ 191100Z 22006KT 6000 BCFG BKN004 OVC012 10/10 Q1020
Conditions at: LPBJ (BEJA (POR/GER-AF, PT) observed 1100 UTC 19 January 2019
Temperature: 10.0°C (50°F)
Dewpoint: 10.0°C (50°F) [RH = 100%]
Pressure (altimeter): 30.12 inches Hg (1020.0 mb)
Winds: from the SW (220 degrees) at 7 MPH (6 knots; 3.1 m/s)
Visibility: 4 miles ( 6 km)
Ceiling: 400 feet AGL
Clouds: broken clouds at 400 feet AGL
overcast cloud deck at 1200 feet AGL
Weather: BCFG  (patches of fog)

METAR text: LPBJ 191036Z 23006KT 2300 PRFG BKN002 OVC008 10/10 Q1020
Conditions at: LPBJ (BEJA (POR/GER-AF, PT) observed 1036 UTC 19 January 2019
Temperature: 10.0°C (50°F)
Dewpoint: 10.0°C (50°F) [RH = 100%]
Pressure (altimeter): 30.12 inches Hg (1020.0 mb)
Winds: from the SW (230 degrees) at 7 MPH (6 knots; 3.1 m/s)
Visibility: 1.43 miles (2.30 km)
Ceiling: 200 feet AGL
Clouds: broken clouds at 200 feet AGL
overcast cloud deck at 800 feet AGL
Weather: PRFG  (partial fog)

METAR text: LPBJ 191000Z 23003KT 0300 FG VV002 09/09 Q1019
Conditions at: LPBJ (BEJA (POR/GER-AF, PT) observed 1000 UTC 19 January 2019
Temperature: 9.0°C (48°F)
Dewpoint: 9.0°C (48°F) [RH = 100%]
Pressure (altimeter): 30.09 inches Hg (1019.0 mb)
Winds: from the SW (230 degrees) at 3 MPH (3 knots; 1.5 m/s)
Visibility: 0.19 miles (0.31 km)
Ceiling: indefinite ceiling with vertical visibility of 200 feet AGL
Clouds: obscured sky
Weather: FG  (fog)

METAR text: LPBJ 190900Z VRB01KT 0200 FG VV002 09/09 Q1019
Conditions at: LPBJ (BEJA (POR/GER-AF, PT) observed 0900 UTC 19 January 2019
Temperature: 9.0°C (48°F)
Dewpoint: 9.0°C (48°F) [RH = 100%]
Pressure (altimeter): 30.09 inches Hg (1019.0 mb)
Winds: variable direction winds at 1 MPH (1 knots; 0.5 m/s)
Visibility: 0.12 miles (0.19 km)
Ceiling: indefinite ceiling with vertical visibility of 200 feet AGL
Clouds: obscured sky
Weather: FG  (fog)

METAR text: LPBJ 190800Z VRB01KT 0400 FG VV003 08/08 Q1019
Conditions at: LPBJ (BEJA (POR/GER-AF, PT) observed 0800 UTC 19 January 2019
Temperature: 8.0°C (46°F)
Dewpoint: 8.0°C (46°F) [RH = 100%]
Pressure (altimeter): 30.09 inches Hg (1019.0 mb)
Winds: variable direction winds at 1 MPH (1 knots; 0.5 m/s)
Visibility: 0.25 miles (0.40 km)
Ceiling: indefinite ceiling with vertical visibility of 300 feet AGL
Clouds: obscured sky
Weather: FG  (fog)

METAR text: LPBJ 190700Z 35003KT 0800 FG VV002 08/08 Q1019
Conditions at: LPBJ (BEJA (POR/GER-AF, PT) observed 0700 UTC 19 January 2019
Temperature: 8.0°C (46°F)
Dewpoint: 8.0°C (46°F) [RH = 100%]
Pressure (altimeter): 30.09 inches Hg (1019.0 mb)
Winds: from the N (350 degrees) at 3 MPH (3 knots; 1.5 m/s)
Visibility: 0.50 miles (0.80 km)
Ceiling: indefinite ceiling with vertical visibility of 200 feet AGL
Clouds: obscured sky
Weather: FG  (fog)

METAR text: LPBJ 190600Z VRB01KT 6000 BCFG SCT002 BKN005 08/08 Q1018
Conditions at: LPBJ (BEJA (POR/GER-AF, PT) observed 0600 UTC 19 January 2019
Temperature: 8.0°C (46°F)
Dewpoint: 8.0°C (46°F) [RH = 100%]
Pressure (altimeter): 30.06 inches Hg (1018.0 mb)
Winds: variable direction winds at 1 MPH (1 knots; 0.5 m/s)
Visibility: 4 miles ( 6 km)
Ceiling: 500 feet AGL
Clouds: scattered clouds at 200 feet AGL
broken clouds at 500 feet AGL
Weather: BCFG  (patches of fog)

METAR text: LPBJ 190500Z VRB02KT 5000 -RADZ OVC002 08/08 Q1018
Conditions at: LPBJ (BEJA (POR/GER-AF, PT) observed 0500 UTC 19 January 2019
Temperature: 8.0°C (46°F)
Dewpoint: 8.0°C (46°F) [RH = 100%]
Pressure (altimeter): 30.06 inches Hg (1018.0 mb)
Winds: variable direction winds at 2 MPH (2 knots; 1.0 m/s)
Visibility: 3 miles ( 5 km)
Ceiling: 200 feet AGL
Clouds: overcast cloud deck at 200 feet AGL
Weather: -RA -DZ  (light rain, light drizzle)

METAR text: LPBJ 190400Z 09002KT 2000 -RADZ BKN002 08/08 Q1018
Conditions at: LPBJ (BEJA (POR/GER-AF, PT) observed 0400 UTC 19 January 2019
Temperature: 8.0°C (46°F)
Dewpoint: 8.0°C (46°F) [RH = 100%]
Pressure (altimeter): 30.06 inches Hg (1018.0 mb)
Winds: from the E (90 degrees) at 2 MPH (2 knots; 1.0 m/s)
Visibility: 1.24 miles (2.00 km)
Ceiling: 200 feet AGL
Clouds: broken clouds at 200 feet AGL
Weather: -RA -DZ  (light rain, light drizzle)

METAR text: LPBJ 190300Z 08003KT 5000 -RADZ BKN002 BKN008 08/08 Q1018
Conditions at: LPBJ (BEJA (POR/GER-AF, PT) observed 0300 UTC 19 January 2019
Temperature: 8.0°C (46°F)
Dewpoint: 8.0°C (46°F) [RH = 100%]
Pressure (altimeter): 30.06 inches Hg (1018.0 mb)
Winds: from the E (80 degrees) at 3 MPH (3 knots; 1.5 m/s)
Visibility: 3 miles ( 5 km)
Ceiling: 200 feet AGL
Clouds: broken clouds at 200 feet AGL
broken clouds at 800 feet AGL
Weather: -RA -DZ  (light rain, light drizzle)

METAR text: LPBJ 190200Z 10002KT 4000 SCT002 BKN012 BKN020 08/08 Q1018
Conditions at: LPBJ (BEJA (POR/GER-AF, PT) observed 0200 UTC 19 January 2019
Temperature: 8.0°C (46°F)
Dewpoint: 8.0°C (46°F) [RH = 100%]
Pressure (altimeter): 30.06 inches Hg (1018.0 mb)
Winds: from the E (100 degrees) at 2 MPH (2 knots; 1.0 m/s)
Visibility: 2.49 miles (4.01 km)
Ceiling: 1200 feet AGL
Clouds: scattered clouds at 200 feet AGL
broken clouds at 1200 feet AGL
broken clouds at 2000 feet AGL
Weather: no significant weather observed at this time

METAR text: LPBJ 190100Z 07002KT 9999 SCT003 BKN008 BKN030 08/08 Q1019
Conditions at: LPBJ (BEJA (POR/GER-AF, PT) observed 0100 UTC 19 January 2019
Temperature: 8.0°C (46°F)
Dewpoint: 8.0°C (46°F) [RH = 100%]
Pressure (altimeter): 30.09 inches Hg (1019.0 mb)
Winds: from the ENE (70 degrees) at 2 MPH (2 knots; 1.0 m/s)
Visibility: 6 or more miles (10+ km)
Ceiling: 800 feet AGL
Clouds: scattered clouds at 300 feet AGL
broken clouds at 800 feet AGL
broken clouds at 3000 feet AGL
Weather: no significant weather observed at this time

METAR text: LPBJ 190000Z 16005KT 9000 OVC003 08/08 Q1019
Conditions at: LPBJ (BEJA (POR/GER-AF, PT) observed 0000 UTC 19 January 2019
Temperature: 8.0°C (46°F)
Dewpoint: 8.0°C (46°F) [RH = 100%]
Pressure (altimeter): 30.09 inches Hg (1019.0 mb)
Winds: from the SSE (160 degrees) at 6 MPH (5 knots; 2.6 m/s)
Visibility: 6 miles ( 9 km)
Ceiling: 300 feet AGL
Clouds: overcast cloud deck at 300 feet AGL
Weather: no significant weather observed at this time

METAR text: LPBJ 182300Z VRB05KT 4000 -RADZ OVC003 08/08 Q1019
Conditions at: LPBJ (BEJA (POR/GER-AF, PT) observed 2300 UTC 18 January 2019
Temperature: 8.0°C (46°F)
Dewpoint: 8.0°C (46°F) [RH = 100%]
Pressure (altimeter): 30.09 inches Hg (1019.0 mb)
Winds: variable direction winds at 6 MPH (5 knots; 2.6 m/s)
Visibility: 2.49 miles (4.01 km)
Ceiling: 300 feet AGL
Clouds: overcast cloud deck at 300 feet AGL
Weather: -RA -DZ  (light rain, light drizzle)

METAR text: LPBJ 182200Z 14007KT 2000 -RADZ SCT003 BKN007 08/08 Q1019
Conditions at: LPBJ (BEJA (POR/GER-AF, PT) observed 2200 UTC 18 January 2019
Temperature: 8.0°C (46°F)
Dewpoint: 8.0°C (46°F) [RH = 100%]
Pressure (altimeter): 30.09 inches Hg (1019.0 mb)
Winds: from the SE (140 degrees) at 8 MPH (7 knots; 3.6 m/s)
Visibility: 1.24 miles (2.00 km)
Ceiling: 700 feet AGL
Clouds: scattered clouds at 300 feet AGL
broken clouds at 700 feet AGL
Weather: -RA -DZ  (light rain, light drizzle)

METAR text: LPBJ 182100Z 16005KT 3000 -RADZ BKN009 BKN015 08/08 Q1019
Conditions at: LPBJ (BEJA (POR/GER-AF, PT) observed 2100 UTC 18 January 2019
Temperature: 8.0°C (46°F)
Dewpoint: 8.0°C (46°F) [RH = 100%]
Pressure (altimeter): 30.09 inches Hg (1019.0 mb)
Winds: from the SSE (160 degrees) at 6 MPH (5 knots; 2.6 m/s)
Visibility: 1.86 miles (2.99 km)
Ceiling: 900 feet AGL
Clouds: broken clouds at 900 feet AGL
broken clouds at 1500 feet AGL
Weather: -RA -DZ  (light rain, light drizzle)

METAR text: LPBJ 182000Z 26005KT 4000 -RADZ BKN012 BKN018 09/08 Q1020
Conditions at: LPBJ (BEJA (POR/GER-AF, PT) observed 2000 UTC 18 January 2019
Temperature: 9.0°C (48°F)
Dewpoint: 8.0°C (46°F) [RH = 93%]
Pressure (altimeter): 30.12 inches Hg (1020.0 mb)
Winds: from the W (260 degrees) at 6 MPH (5 knots; 2.6 m/s)
Visibility: 2.49 miles (4.01 km)
Ceiling: 1200 feet AGL
Clouds: broken clouds at 1200 feet AGL
broken clouds at 1800 feet AGL
Weather: -RA -DZ  (light rain, light drizzle)

METAR text: LPBJ 181900Z 29007KT 9999 -RA SCT020 BKN035 10/07 Q1020
Conditions at: LPBJ (BEJA (POR/GER-AF, PT) observed 1900 UTC 18 January 2019
Temperature: 10.0°C (50°F)
Dewpoint: 7.0°C (45°F) [RH = 82%]
Pressure (altimeter): 30.12 inches Hg (1020.0 mb)
Winds: from the WNW (290 degrees) at 8 MPH (7 knots; 3.6 m/s)
Visibility: 6 or more miles (10+ km)
Ceiling: 3500 feet AGL
Clouds: scattered clouds at 2000 feet AGL
broken clouds at 3500 feet AGL
Weather: -RA  (light rain)

METAR text: LPBJ 181800Z 29004KT 9999 FEW040 11/04 Q1020
Conditions at: LPBJ (BEJA (POR/GER-AF, PT) observed 1800 UTC 18 January 2019
Temperature: 11.0°C (52°F)
Dewpoint: 4.0°C (39°F) [RH = 62%]
Pressure (altimeter): 30.12 inches Hg (1020.0 mb)
Winds: from the WNW (290 degrees) at 5 MPH (4 knots; 2.1 m/s)
Visibility: 6 or more miles (10+ km)
Ceiling: at least 12,000 feet AGL
Clouds: few clouds at 4000 feet AGL
Weather: no significant weather observed at this time

METAR text: LPBJ 181700Z 31006KT 9999 SCT045 12/04 Q1020
Conditions at: LPBJ (BEJA (POR/GER-AF, PT) observed 1700 UTC 18 January 2019
Temperature: 12.0°C (54°F)
Dewpoint: 4.0°C (39°F) [RH = 58%]
Pressure (altimeter): 30.12 inches Hg (1020.0 mb)
Winds: from the NW (310 degrees) at 7 MPH (6 knots; 3.1 m/s)
Visibility: 6 or more miles (10+ km)
Ceiling: at least 12,000 feet AGL
Clouds: scattered clouds at 4500 feet AGL
Weather: no significant weather observed at this time

METAR text: LPBJ 181600Z 31009KT 9999 FEW040 13/03 Q1020
Conditions at: LPBJ (BEJA (POR/GER-AF, PT) observed 1600 UTC 18 January 2019
Temperature: 13.0°C (55°F)
Dewpoint: 3.0°C (37°F) [RH = 51%]
Pressure (altimeter): 30.12 inches Hg (1020.0 mb)
Winds: from the NW (310 degrees) at 10 MPH (9 knots; 4.6 m/s)
Visibility: 6 or more miles (10+ km)
Ceiling: at least 12,000 feet AGL
Clouds: few clouds at 4000 feet AGL
Weather: no significant weather observed at this time

METAR text: LPBJ 181500Z 31010KT 280V340 9999 FEW040 13/02 Q1021
Conditions at: LPBJ (BEJA (POR/GER-AF, PT) observed 1500 UTC 18 January 2019
Temperature: 13.0°C (55°F)
Dewpoint: 2.0°C (36°F) [RH = 47%]
Pressure (altimeter): 30.15 inches Hg (1021.0 mb)
Winds: from the NW (310 degrees) at 12 MPH (10 knots; 5.1 m/s)
Visibility: 6 or more miles (10+ km)
Ceiling: at least 12,000 feet AGL
Clouds: few clouds at 4000 feet AGL
Weather: no significant weather observed at this time

METAR text: LPBJ 181400Z 31007KT 280V340 9999 FEW040 12/02 Q1021
Conditions at: LPBJ (BEJA (POR/GER-AF, PT) observed 1400 UTC 18 January 2019
Temperature: 12.0°C (54°F)
Dewpoint: 2.0°C (36°F) [RH = 50%]
Pressure (altimeter): 30.15 inches Hg (1021.0 mb)
Winds: from the NW (310 degrees) at 8 MPH (7 knots; 3.6 m/s)
Visibility: 6 or more miles (10+ km)
Ceiling: at least 12,000 feet AGL
Clouds: few clouds at 4000 feet AGL
Weather: no significant weather observed at this time

METAR text: LPBJ 181300Z 29006KT CAVOK 11/03 Q1022
Conditions at: LPBJ (BEJA (POR/GER-AF, PT) observed 1300 UTC 18 January 2019
Temperature: 11.0°C (52°F)
Dewpoint: 3.0°C (37°F) [RH = 58%]
Pressure (altimeter): 30.18 inches Hg (1022.0 mb)
Winds: from the WNW (290 degrees) at 7 MPH (6 knots; 3.1 m/s)
Visibility: 6 or more miles (10+ km)
Ceiling: ceiling and visibility are OK
Clouds: unknown
Weather: no significant weather observed at this time

METAR text: LPBJ 181200Z 29005KT 260V330 CAVOK 10/04 Q1022
Conditions at: LPBJ (BEJA (POR/GER-AF, PT) observed 1200 UTC 18 January 2019
Temperature: 10.0°C (50°F)
Dewpoint: 4.0°C (39°F) [RH = 66%]
Pressure (altimeter): 30.18 inches Hg (1022.0 mb)
Winds: from the WNW (290 degrees) at 6 MPH (5 knots; 2.6 m/s)
Visibility: 6 or more miles (10+ km)
Ceiling: ceiling and visibility are OK
Clouds: unknown
Weather: no significant weather observed at this time

METAR text: LPBJ 181100Z 30003KT 260V350 CAVOK 08/05 Q1023
Conditions at: LPBJ (BEJA (POR/GER-AF, PT) observed 1100 UTC 18 January 2019
Temperature: 8.0°C (46°F)
Dewpoint: 5.0°C (41°F) [RH = 81%]
Pressure (altimeter): 30.21 inches Hg (1023.0 mb)
Winds: from the WNW (300 degrees) at 3 MPH (3 knots; 1.5 m/s)
Visibility: 6 or more miles (10+ km)
Ceiling: ceiling and visibility are OK
Clouds: unknown
Weather: no significant weather observed at this time

METAR text: LPBJ 181000Z 29003KT 6000 BCFG NSC 06/05 Q1023
Conditions at: LPBJ (BEJA (POR/GER-AF, PT) observed 1000 UTC 18 January 2019
Temperature: 6.0°C (43°F)
Dewpoint: 5.0°C (41°F) [RH = 93%]
Pressure (altimeter): 30.21 inches Hg (1023.0 mb)
Winds: from the WNW (290 degrees) at 3 MPH (3 knots; 1.5 m/s)
Visibility: 4 miles ( 6 km)
Ceiling: at least 12,000 feet AGL
Clouds: sky clear below 12,000 feet AGL
Weather: BCFG  (patches of fog)

METAR text: LPBJ 180936Z 28004KT 3000 BCFG NSC 05/05 Q1022
Conditions at: LPBJ (BEJA (POR/GER-AF, PT) observed 0936 UTC 18 January 2019
Temperature: 5.0°C (41°F)
Dewpoint: 5.0°C (41°F) [RH = 100%]
Pressure (altimeter): 30.18 inches Hg (1022.0 mb)
Winds: from the W (280 degrees) at 5 MPH (4 knots; 2.1 m/s)
Visibility: 1.86 miles (2.99 km)
Ceiling: at least 12,000 feet AGL
Clouds: sky clear below 12,000 feet AGL
Weather: BCFG  (patches of fog)

METAR text: LPBJ 180913Z 28003KT 1600 0800E BCFG NSC 04/04 Q1022
Conditions at: LPBJ (BEJA (POR/GER-AF, PT) observed 0913 UTC 18 January 2019
Temperature: 4.0°C (39°F)
Dewpoint: 4.0°C (39°F) [RH = 100%]
Pressure (altimeter): 30.18 inches Hg (1022.0 mb)
Winds: from the W (280 degrees) at 3 MPH (3 knots; 1.5 m/s)
Visibility: 0.99 miles (1.59 km)
Ceiling: at least 12,000 feet AGL
Clouds: sky clear below 12,000 feet AGL
Weather: BCFG  (patches of fog)

METAR text: LPBJ 180900Z 28004KT 0200 FG NSC 03/03 Q1022
Conditions at: LPBJ (BEJA (POR/GER-AF, PT) observed 0900 UTC 18 January 2019
Temperature: 3.0°C (37°F)
Dewpoint: 3.0°C (37°F) [RH = 100%]
Pressure (altimeter): 30.18 inches Hg (1022.0 mb)
Winds: from the W (280 degrees) at 5 MPH (4 knots; 2.1 m/s)
Visibility: 0.12 miles (0.19 km)
Ceiling: at least 12,000 feet AGL
Clouds: sky clear below 12,000 feet AGL
Weather: FG  (fog)

METAR text: LPBJ 180843Z 29004KT 0600 FG NSC 03/03 Q1022
Conditions at: LPBJ (BEJA (POR/GER-AF, PT) observed 0843 UTC 18 January 2019
Temperature: 3.0°C (37°F)
Dewpoint: 3.0°C (37°F) [RH = 100%]
Pressure (altimeter): 30.18 inches Hg (1022.0 mb)
Winds: from the WNW (290 degrees) at 5 MPH (4 knots; 2.1 m/s)
Visibility: 0.37 miles (0.60 km)
Ceiling: at least 12,000 feet AGL
Clouds: sky clear below 12,000 feet AGL
Weather: FG  (fog)

METAR text: LPBJ 180800Z 30002KT 8000 MIFG NSC 01/01 Q1021
Conditions at: LPBJ (BEJA (POR/GER-AF, PT) observed 0800 UTC 18 January 2019
Temperature: 1.0°C (34°F)
Dewpoint: 1.0°C (34°F) [RH = 100%]
Pressure (altimeter): 30.15 inches Hg (1021.0 mb)
Winds: from the WNW (300 degrees) at 2 MPH (2 knots; 1.0 m/s)
Visibility: 5 miles ( 8 km)
Ceiling: at least 12,000 feet AGL
Clouds: sky clear below 12,000 feet AGL
Weather: MIFG  (shallow fog)

METAR text: LPBJ 180700Z 32002KT 9000 VCFG NSC 02/02 Q1021
Conditions at: LPBJ (BEJA (POR/GER-AF, PT) observed 0700 UTC 18 January 2019
Temperature: 2.0°C (36°F)
Dewpoint: 2.0°C (36°F) [RH = 100%]
Pressure (altimeter): 30.15 inches Hg (1021.0 mb)
Winds: from the NW (320 degrees) at 2 MPH (2 knots; 1.0 m/s)
Visibility: 6 miles ( 9 km)
Ceiling: at least 12,000 feet AGL
Clouds: sky clear below 12,000 feet AGL
Weather: VCFG  (fog in vicinity)

METAR text: LPBJ 180600Z 33004KT 9999 VCFG NSC 02/02 Q1021
Conditions at: LPBJ (BEJA (POR/GER-AF, PT) observed 0600 UTC 18 January 2019
Temperature: 2.0°C (36°F)
Dewpoint: 2.0°C (36°F) [RH = 100%]
Pressure (altimeter): 30.15 inches Hg (1021.0 mb)
Winds: from the NNW (330 degrees) at 5 MPH (4 knots; 2.1 m/s)
Visibility: 6 or more miles (10+ km)
Ceiling: at least 12,000 feet AGL
Clouds: sky clear below 12,000 feet AGL
Weather: VCFG  (fog in vicinity)

METAR text: LPBJ 180500Z 01002KT 9999 VCFG NSC 02/02 Q1021
Conditions at: LPBJ (BEJA (POR/GER-AF, PT) observed 0500 UTC 18 January 2019
Temperature: 2.0°C (36°F)
Dewpoint: 2.0°C (36°F) [RH = 100%]
Pressure (altimeter): 30.15 inches Hg (1021.0 mb)
Winds: from the N (10 degrees) at 2 MPH (2 knots; 1.0 m/s)
Visibility: 6 or more miles (10+ km)
Ceiling: at least 12,000 feet AGL
Clouds: sky clear below 12,000 feet AGL
Weather: VCFG  (fog in vicinity)

METAR text: LPBJ 180400Z 32005KT 9999 VCFG NSC 03/03 Q1021
Conditions at: LPBJ (BEJA (POR/GER-AF, PT) observed 0400 UTC 18 January 2019
Temperature: 3.0°C (37°F)
Dewpoint: 3.0°C (37°F) [RH = 100%]
Pressure (altimeter): 30.15 inches Hg (1021.0 mb)
Winds: from the NW (320 degrees) at 6 MPH (5 knots; 2.6 m/s)
Visibility: 6 or more miles (10+ km)
Ceiling: at least 12,000 feet AGL
Clouds: sky clear below 12,000 feet AGL
Weather: VCFG  (fog in vicinity)

METAR text: LPBJ 180300Z 32007KT 9999 VCFG NSC 03/03 Q1021
Conditions at: LPBJ (BEJA (POR/GER-AF, PT) observed 0300 UTC 18 January 2019
Temperature: 3.0°C (37°F)
Dewpoint: 3.0°C (37°F) [RH = 100%]
Pressure (altimeter): 30.15 inches Hg (1021.0 mb)
Winds: from the NW (320 degrees) at 8 MPH (7 knots; 3.6 m/s)
Visibility: 6 or more miles (10+ km)
Ceiling: at least 12,000 feet AGL
Clouds: sky clear below 12,000 feet AGL
Weather: VCFG  (fog in vicinity)

METAR text: LPBJ 180200Z 33004KT 9999 VCFG NSC 03/03 Q1021
Conditions at: LPBJ (BEJA (POR/GER-AF, PT) observed 0200 UTC 18 January 2019
Temperature: 3.0°C (37°F)
Dewpoint: 3.0°C (37°F) [RH = 100%]
Pressure (altimeter): 30.15 inches Hg (1021.0 mb)
Winds: from the NNW (330 degrees) at 5 MPH (4 knots; 2.1 m/s)
Visibility: 6 or more miles (10+ km)
Ceiling: at least 12,000 feet AGL
Clouds: sky clear below 12,000 feet AGL
Weather: VCFG  (fog in vicinity)

Forecast for: AMD
Text: TAF AMD LPBJ 191208Z 1912/2012 22005KT 0700 -DZ FG OVC002
Forecast period: 1200 UTC 19 January 2019 to 1200 UTC 20 January 2019
Forecast type: FROM: standard forecast or significant change
Winds: from the SW (220 degrees) at 6 MPH (5 knots; 2.6 m/s)
Visibility: 0.43 miles (0.69 km)
Ceiling: 200 feet AGL
Clouds: overcast cloud deck at 200 feet AGL
Weather: -DZ FG  (light drizzle, fog)
Text: BECMG 1912/1914 5000 BR SCT005 BKN015
Forecast period: 1200 to 1500 UTC 19 January 2019
Forecast type: BECOMING: Conditions expected to become as follows by 1400 UTC 19 January 2019
Winds: from the SW (220 degrees) at 6 MPH (5 knots; 2.6 m/s)
Visibility: 3 miles (5 km)
Ceiling: 1500 feet AGL
Clouds: scattered clouds at 500 feet AGL
broken clouds at 1500 feet AGL
Weather: BR  (mist)
Text: TEMPO 1914/1916 3000 -RADZ BR SCT005 BKN012
Forecast period: 1400 to 1600 UTC 19 January 2019
Forecast type: TEMPORARY: The following changes expected for less than half the time period
Visibility: 1.86 miles (2.99 km)
Ceiling: 1200 feet AGL
Clouds: scattered clouds at 500 feet AGL
broken clouds at 1200 feet AGL
Weather: -RA -DZ BR  (light rain, light drizzle, mist)
Text: BECMG 1915/1918 25010KT 8000 -RADZ BR SCT005 BKN015
Forecast period: 1500 UTC 19 January 2019 to 0100 UTC 20 January 2019
Forecast type: BECOMING: Conditions expected to become as follows by 1800 UTC 19 January 2019
Winds: from the WSW (250 degrees) at 12 MPH (10 knots; 5.1 m/s)
Visibility: 5 miles (8 km)
Ceiling: 1500 feet AGL
Clouds: scattered clouds at 500 feet AGL
broken clouds at 1500 feet AGL
Weather: -RA -DZ BR  (light rain, light drizzle, mist)
Text: TEMPO 1917/1921 1000 RADZ BR BKN004
Forecast period: 1700 to 2100 UTC 19 January 2019
Forecast type: TEMPORARY: The following changes expected for less than half the time period
Visibility: 0.62 miles (1.00 km)
Ceiling: 400 feet AGL
Clouds: broken clouds at 400 feet AGL
Weather: RA DZ BR  (moderate rain, moderate drizzle, mist)
Text: BECMG 2001/2004 31012KT 9999 NSW SCT007 SCT020
Forecast period: 0100 to 1200 UTC 20 January 2019
Forecast type: BECOMING: Conditions expected to become as follows by 0400 UTC 20 January 2019
Winds: from the NW (310 degrees) at 14 MPH (12 knots; 6.2 m/s)
Visibility: 6 or more miles 10+ km)
Ceiling: at least 12,000 feet AGL
Clouds: scattered clouds at 700 feet AGL
scattered clouds at 2000 feet AGL
Weather: NSW  (no significant weather)
Text: TEMPO 2003/2012 30015G25KT
Forecast period: 0300 to 1200 UTC 20 January 2019
Forecast type: TEMPORARY: The following changes expected for less than half the time period
Winds: from the WNW (300 degrees) at 17 MPH (15 knots; 7.7 m/s)
gusting to 29 MPH (25 knots; 12.9 m/s)
Visibility: missing
Ceiling: unknown
Clouds: missing
Weather: no significant weather forecast for this period